sensor_id;sensor_type;location;lat;lon;timestamp;pressure;altitude;pressure_sealevel;temperature;humidity
11912;BME280;6016;41.928;25.556;2023-12-14T00:01:55;98346.88;;;7.56;81.15
11912;BME280;6016;41.928;25.556;2023-12-14T00:04:22;98357.38;;;7.56;81.31
11912;BME280;6016;41.928;25.556;2023-12-14T00:06:50;98314.16;;;7.31;81.87
11912;BME280;6016;41.928;25.556;2023-12-14T00:09:17;98313.63;;;7.27;81.40
11912;BME280;6016;41.928;25.556;2023-12-14T00:11:44;98346.03;;;7.46;80.84
11912;BME280;6016;41.928;25.556;2023-12-14T00:14:11;98317.34;;;7.25;80.88
11912;BME280;6016;41.928;25.556;2023-12-14T00:16:38;98352.53;;;7.42;80.81
11912;BME280;6016;41.928;25.556;2023-12-14T00:19:06;98383.63;;;7.56;81.37
11912;BME280;6016;41.928;25.556;2023-12-14T00:21:33;98362.47;;;7.38;81.05
11912;BME280;6016;41.928;25.556;2023-12-14T00:24:01;98368.41;;;7.50;81.10
11912;BME280;6016;41.928;25.556;2023-12-14T00:26:28;98328.78;;;7.24;80.63
11912;BME280;6016;41.928;25.556;2023-12-14T00:28:55;98379.19;;;7.47;81.08
11912;BME280;6016;41.928;25.556;2023-12-14T00:31:22;98382.66;;;7.48;81.26
11912;BME280;6016;41.928;25.556;2023-12-14T00:33:49;98375.59;;;7.48;80.88
11912;BME280;6016;41.928;25.556;2023-12-14T00:36:19;98375.88;;;7.45;80.89
11912;BME280;6016;41.928;25.556;2023-12-14T00:38:46;98383.63;;;7.46;81.81
11912;BME280;6016;41.928;25.556;2023-12-14T00:41:15;98367.56;;;7.30;81.26
11912;BME280;6016;41.928;25.556;2023-12-14T00:43:42;98376.56;;;7.47;81.55
11912;BME280;6016;41.928;25.556;2023-12-14T00:46:09;98368.69;;;7.47;80.71
11912;BME280;6016;41.928;25.556;2023-12-14T00:48:37;98381.13;;;7.45;80.37
11912;BME280;6016;41.928;25.556;2023-12-14T00:51:04;98203.44;;;6.29;80.17
11912;BME280;6016;41.928;25.556;2023-12-14T00:53:31;98382.91;;;7.44;81.32
11912;BME280;6016;41.928;25.556;2023-12-14T00:55:58;98350.19;;;7.19;80.53
11912;BME280;6016;41.928;25.556;2023-12-14T00:58:26;98368.81;;;7.36;80.53
11912;BME280;6016;41.928;25.556;2023-12-14T01:00:53;98368.53;;;7.39;80.36
11912;BME280;6016;41.928;25.556;2023-12-14T01:03:20;98354.59;;;7.18;79.25
11912;BME280;6016;41.928;25.556;2023-12-14T01:05:47;98379.59;;;7.32;80.32
11912;BME280;6016;41.928;25.556;2023-12-14T01:08:14;98330.28;;;7.07;79.33
11912;BME280;6016;41.928;25.556;2023-12-14T01:10:42;98372.69;;;7.22;80.63
11912;BME280;6016;41.928;25.556;2023-12-14T01:13:09;98322.44;;;6.97;81.95
11912;BME280;6016;41.928;25.556;2023-12-14T01:15:37;98301.00;;;6.82;80.72
11912;BME280;6016;41.928;25.556;2023-12-14T01:18:04;98348.13;;;7.23;81.49
11912;BME280;6016;41.928;25.556;2023-12-14T01:20:31;98331.66;;;7.11;80.17
11912;BME280;6016;41.928;25.556;2023-12-14T01:22:58;98357.78;;;7.12;80.13
11912;BME280;6016;41.928;25.556;2023-12-14T01:25:25;98356.41;;;7.18;79.71
11912;BME280;6016;41.928;25.556;2023-12-14T01:27:52;98330.69;;;7.02;79.78
11912;BME280;6016;41.928;25.556;2023-12-14T01:30:19;98311.09;;;6.77;79.88
11912;BME280;6016;41.928;25.556;2023-12-14T01:32:48;98308.91;;;6.41;82.31
11912;BME280;6016;41.928;25.556;2023-12-14T01:35:15;98353.94;;;6.75;80.67
11912;BME280;6016;41.928;25.556;2023-12-14T01:37:42;98333.25;;;6.72;80.42
11912;BME280;6016;41.928;25.556;2023-12-14T01:40:09;98324.47;;;6.83;81.23
11912;BME280;6016;41.928;25.556;2023-12-14T01:42:36;98320.03;;;6.74;81.43
11912;BME280;6016;41.928;25.556;2023-12-14T01:45:04;98306.94;;;6.84;80.52
11912;BME280;6016;41.928;25.556;2023-12-14T01:47:32;98319.66;;;6.88;81.33
11912;BME280;6016;41.928;25.556;2023-12-14T01:50:00;98288.03;;;6.80;81.84
11912;BME280;6016;41.928;25.556;2023-12-14T01:52:27;98283.19;;;6.75;81.45
11912;BME280;6016;41.928;25.556;2023-12-14T01:54:54;98306.94;;;6.94;80.52
11912;BME280;6016;41.928;25.556;2023-12-14T01:57:24;98305.84;;;6.86;80.08
11912;BME280;6016;41.928;25.556;2023-12-14T01:59:51;98304.44;;;6.82;80.45
11912;BME280;6016;41.928;25.556;2023-12-14T02:02:18;98250.41;;;6.30;82.53
11912;BME280;6016;41.928;25.556;2023-12-14T02:04:45;98324.59;;;6.82;81.94
11912;BME280;6016;41.928;25.556;2023-12-14T02:07:14;98305.97;;;6.75;81.08
11912;BME280;6016;41.928;25.556;2023-12-14T02:09:41;98124.81;;;5.58;81.37
11912;BME280;6016;41.928;25.556;2023-12-14T02:12:08;98312.88;;;6.86;80.55
11912;BME280;6016;41.928;25.556;2023-12-14T02:14:35;98313.16;;;6.93;80.41
11912;BME280;6016;41.928;25.556;2023-12-14T02:17:02;98299.06;;;6.84;80.26
11912;BME280;6016;41.928;25.556;2023-12-14T02:19:29;98303.25;;;6.96;80.43
11912;BME280;6016;41.928;25.556;2023-12-14T02:21:56;98314.13;;;7.01;82.04
11912;BME280;6016;41.928;25.556;2023-12-14T02:24:25;98264.44;;;6.70;80.33
11912;BME280;6016;41.928;25.556;2023-12-14T02:26:52;98308.63;;;7.04;80.73
11912;BME280;6016;41.928;25.556;2023-12-14T02:29:19;98240.44;;;6.65;80.22
11912;BME280;6016;41.928;25.556;2023-12-14T02:31:46;98279.22;;;6.91;80.71
11912;BME280;6016;41.928;25.556;2023-12-14T02:34:13;98312.91;;;6.96;80.84
11912;BME280;6016;41.928;25.556;2023-12-14T02:36:40;98255.72;;;6.70;80.78
11912;BME280;6016;41.928;25.556;2023-12-14T02:39:08;98294.41;;;6.87;80.84
11912;BME280;6016;41.928;25.556;2023-12-14T02:41:36;98235.16;;;6.36;81.12
11912;BME280;6016;41.928;25.556;2023-12-14T02:44:03;98293.84;;;6.74;81.70
11912;BME280;6016;41.928;25.556;2023-12-14T02:46:30;98303.91;;;6.79;82.12
11912;BME280;6016;41.928;25.556;2023-12-14T02:48:57;98308.88;;;6.82;81.63
11912;BME280;6016;41.928;25.556;2023-12-14T02:51:24;98300.72;;;6.85;81.12
11912;BME280;6016;41.928;25.556;2023-12-14T02:53:51;98313.13;;;6.73;81.16
11912;BME280;6016;41.928;25.556;2023-12-14T02:56:18;98267.84;;;6.41;81.29
11912;BME280;6016;41.928;25.556;2023-12-14T02:58:47;98269.38;;;6.54;80.83
11912;BME280;6016;41.928;25.556;2023-12-14T03:01:18;98318.53;;;6.81;81.07
11912;BME280;6016;41.928;25.556;2023-12-14T03:03:45;98283.63;;;6.71;81.03
11912;BME280;6016;41.928;25.556;2023-12-14T03:06:12;98251.47;;;6.59;81.13
11912;BME280;6016;41.928;25.556;2023-12-14T03:08:39;98302.66;;;6.83;80.42
11912;BME280;6016;41.928;25.556;2023-12-14T03:11:06;98298.50;;;6.80;80.90
11912;BME280;6016;41.928;25.556;2023-12-14T03:13:33;98313.44;;;6.89;80.31
11912;BME280;6016;41.928;25.556;2023-12-14T03:16:02;98303.88;;;6.69;80.54
11912;BME280;6016;41.928;25.556;2023-12-14T03:18:29;98236.78;;;6.27;82.02
11912;BME280;6016;41.928;25.556;2023-12-14T03:20:56;98258.34;;;6.60;81.96
11912;BME280;6016;41.928;25.556;2023-12-14T03:23:23;98304.31;;;6.94;81.22
11912;BME280;6016;41.928;25.556;2023-12-14T03:25:50;98309.56;;;6.94;80.29
11912;BME280;6016;41.928;25.556;2023-12-14T03:28:17;98308.75;;;6.93;78.96
11912;BME280;6016;41.928;25.556;2023-12-14T03:30:44;98277.38;;;6.62;79.13
11912;BME280;6016;41.928;25.556;2023-12-14T03:33:12;98302.13;;;6.89;78.85
11912;BME280;6016;41.928;25.556;2023-12-14T03:35:39;98292.28;;;6.52;79.50
11912;BME280;6016;41.928;25.556;2023-12-14T03:38:07;98296.41;;;6.54;79.70
11912;BME280;6016;41.928;25.556;2023-12-14T03:40:34;98260.34;;;6.27;81.13
11912;BME280;6016;41.928;25.556;2023-12-14T03:43:01;98295.47;;;6.65;80.72
11912;BME280;6016;41.928;25.556;2023-12-14T03:45:28;98304.59;;;6.71;80.85
11912;BME280;6016;41.928;25.556;2023-12-14T03:47:55;98314.34;;;6.69;80.95
11912;BME280;6016;41.928;25.556;2023-12-14T03:50:24;98309.69;;;6.72;80.83
11912;BME280;6016;41.928;25.556;2023-12-14T03:52:51;98318.22;;;6.65;80.63
11912;BME280;6016;41.928;25.556;2023-12-14T03:55:18;98307.06;;;6.72;81.59
11912;BME280;6016;41.928;25.556;2023-12-14T03:57:45;98309.41;;;6.75;81.77
11912;BME280;6016;41.928;25.556;2023-12-14T04:00:13;98291.00;;;6.46;80.51
11912;BME280;6016;41.928;25.556;2023-12-14T04:02:40;98331.91;;;6.78;80.77
11912;BME280;6016;41.928;25.556;2023-12-14T04:05:08;98317.53;;;6.72;80.25
11912;BME280;6016;41.928;25.556;2023-12-14T04:07:37;98288.25;;;6.47;81.19
11912;BME280;6016;41.928;25.556;2023-12-14T04:10:06;98319.38;;;6.82;79.73
11912;BME280;6016;41.928;25.556;2023-12-14T04:12:34;98327.78;;;6.85;80.35
11912;BME280;6016;41.928;25.556;2023-12-14T04:15:01;98319.38;;;6.92;80.53
11912;BME280;6016;41.928;25.556;2023-12-14T04:17:28;98334.69;;;6.77;78.41
11912;BME280;6016;41.928;25.556;2023-12-14T04:19:55;98336.03;;;6.71;79.40
11912;BME280;6016;41.928;25.556;2023-12-14T04:22:22;98332.31;;;6.73;78.18
11912;BME280;6016;41.928;25.556;2023-12-14T04:24:51;98307.91;;;6.73;78.53
11912;BME280;6016;41.928;25.556;2023-12-14T04:27:19;98308.03;;;6.71;78.67
11912;BME280;6016;41.928;25.556;2023-12-14T04:29:46;98313.72;;;6.77;79.16
11912;BME280;6016;41.928;25.556;2023-12-14T04:32:13;98306.78;;;6.66;78.62
11912;BME280;6016;41.928;25.556;2023-12-14T04:34:40;98317.13;;;6.77;77.54
11912;BME280;6016;41.928;25.556;2023-12-14T04:37:07;98325.38;;;6.63;77.52
11912;BME280;6016;41.928;25.556;2023-12-14T04:39:34;98307.63;;;6.66;78.36
11912;BME280;6016;41.928;25.556;2023-12-14T04:42:02;98311.31;;;6.64;78.04
11912;BME280;6016;41.928;25.556;2023-12-14T04:44:29;98319.47;;;6.60;78.28
11912;BME280;6016;41.928;25.556;2023-12-14T04:46:56;98288.94;;;6.50;78.76
11912;BME280;6016;41.928;25.556;2023-12-14T04:49:24;98185.53;;;5.93;78.44
11912;BME280;6016;41.928;25.556;2023-12-14T04:51:51;98271.31;;;6.52;79.05
11912;BME280;6016;41.928;25.556;2023-12-14T04:54:18;98308.63;;;6.44;79.32
11912;BME280;6016;41.928;25.556;2023-12-14T04:56:45;98322.75;;;6.22;80.07
11912;BME280;6016;41.928;25.556;2023-12-14T04:59:14;98278.81;;;6.25;80.91
11912;BME280;6016;41.928;25.556;2023-12-14T05:01:41;98307.16;;;6.51;79.67
11912;BME280;6016;41.928;25.556;2023-12-14T05:04:08;98313.34;;;6.50;79.59
11912;BME280;6016;41.928;25.556;2023-12-14T05:06:35;98274.09;;;6.19;79.33
11912;BME280;6016;41.928;25.556;2023-12-14T05:09:02;98314.63;;;6.56;79.70
11912;BME280;6016;41.928;25.556;2023-12-14T05:11:31;98274.25;;;6.27;79.75
11912;BME280;6016;41.928;25.556;2023-12-14T05:13:58;98315.13;;;6.50;79.39
11912;BME280;6016;41.928;25.556;2023-12-14T05:16:26;98303.97;;;6.47;79.83
11912;BME280;6016;41.928;25.556;2023-12-14T05:18:53;98294.25;;;6.28;80.78
11912;BME280;6016;41.928;25.556;2023-12-14T05:21:20;98309.91;;;6.50;80.29
11912;BME280;6016;41.928;25.556;2023-12-14T05:23:47;98308.25;;;6.48;79.46
11912;BME280;6016;41.928;25.556;2023-12-14T05:26:14;98296.28;;;6.56;80.19
11912;BME280;6016;41.928;25.556;2023-12-14T05:28:41;98240.78;;;6.21;79.28
11912;BME280;6016;41.928;25.556;2023-12-14T05:31:09;98222.00;;;6.16;79.57
11912;BME280;6016;41.928;25.556;2023-12-14T05:33:38;98278.22;;;6.53;79.99
11912;BME280;6016;41.928;25.556;2023-12-14T05:36:06;98209.69;;;6.07;79.53
11912;BME280;6016;41.928;25.556;2023-12-14T05:38:36;98254.41;;;6.25;80.06
11912;BME280;6016;41.928;25.556;2023-12-14T05:41:03;98267.16;;;6.39;80.27
11912;BME280;6016;41.928;25.556;2023-12-14T05:43:30;98285.78;;;6.46;79.88
11912;BME280;6016;41.928;25.556;2023-12-14T05:45:57;98282.88;;;6.49;79.95
11912;BME280;6016;41.928;25.556;2023-12-14T05:48:24;98291.31;;;6.53;80.41
11912;BME280;6016;41.928;25.556;2023-12-14T05:50:53;98280.69;;;6.54;79.55
11912;BME280;6016;41.928;25.556;2023-12-14T05:53:21;98293.66;;;6.56;79.99
11912;BME280;6016;41.928;25.556;2023-12-14T05:55:48;98289.09;;;6.58;79.30
11912;BME280;6016;41.928;25.556;2023-12-14T05:58:15;98255.72;;;6.40;79.73
11912;BME280;6016;41.928;25.556;2023-12-14T06:00:42;98226.38;;;6.05;79.03
11912;BME280;6016;41.928;25.556;2023-12-14T06:03:09;98240.59;;;6.13;79.68
11912;BME280;6016;41.928;25.556;2023-12-14T06:05:36;98281.53;;;6.55;79.52
11912;BME280;6016;41.928;25.556;2023-12-14T06:08:04;98253.59;;;6.24;79.79
11912;BME280;6016;41.928;25.556;2023-12-14T06:10:32;98298.22;;;6.64;78.96
11912;BME280;6016;41.928;25.556;2023-12-14T06:12:59;98300.28;;;6.60;78.75
11912;BME280;6016;41.928;25.556;2023-12-14T06:15:26;98255.63;;;6.21;79.60
11912;BME280;6016;41.928;25.556;2023-12-14T06:17:53;98221.06;;;5.96;80.62
11912;BME280;6016;41.928;25.556;2023-12-14T06:20:20;98317.97;;;6.27;78.84
11912;BME280;6016;41.928;25.556;2023-12-14T06:22:48;98303.31;;;6.14;81.28
11912;BME280;6016;41.928;25.556;2023-12-14T06:25:17;98309.53;;;6.23;82.47
11912;BME280;6016;41.928;25.556;2023-12-14T06:27:44;98324.59;;;6.31;81.05
11912;BME280;6016;41.928;25.556;2023-12-14T06:30:12;98214.31;;;5.62;80.65
11912;BME280;6016;41.928;25.556;2023-12-14T06:32:39;98283.88;;;6.17;79.65
11912;BME280;6016;41.928;25.556;2023-12-14T06:35:06;98334.88;;;6.54;79.57
11912;BME280;6016;41.928;25.556;2023-12-14T06:37:33;98332.38;;;6.52;80.12
11912;BME280;6016;41.928;25.556;2023-12-14T06:40:01;98188.25;;;5.51;80.21
11912;BME280;6016;41.928;25.556;2023-12-14T06:42:29;98301.13;;;6.19;80.65
11912;BME280;6016;41.928;25.556;2023-12-14T06:44:56;98337.22;;;6.47;80.34
11912;BME280;6016;41.928;25.556;2023-12-14T06:47:23;98349.63;;;6.45;80.29
11912;BME280;6016;41.928;25.556;2023-12-14T06:49:50;98288.81;;;6.10;80.64
11912;BME280;6016;41.928;25.556;2023-12-14T06:52:17;98315.06;;;6.20;80.42
11912;BME280;6016;41.928;25.556;2023-12-14T06:54:44;98332.16;;;6.24;81.43
11912;BME280;6016;41.928;25.556;2023-12-14T06:57:12;98289.34;;;6.04;82.46
11912;BME280;6016;41.928;25.556;2023-12-14T06:59:40;98356.50;;;6.46;81.95
11912;BME280;6016;41.928;25.556;2023-12-14T07:02:07;98315.09;;;6.30;81.03
11912;BME280;6016;41.928;25.556;2023-12-14T07:04:34;98348.22;;;6.51;80.88
11912;BME280;6016;41.928;25.556;2023-12-14T07:07:01;98348.94;;;6.53;80.86
11912;BME280;6016;41.928;25.556;2023-12-14T07:09:28;98359.75;;;6.69;81.83
11912;BME280;6016;41.928;25.556;2023-12-14T07:11:55;98353.84;;;6.77;80.64
11912;BME280;6016;41.928;25.556;2023-12-14T07:14:22;98353.03;;;6.77;81.41
11912;BME280;6016;41.928;25.556;2023-12-14T07:16:51;98354.22;;;6.72;81.52
11912;BME280;6016;41.928;25.556;2023-12-14T07:19:18;98336.44;;;6.76;80.47
11912;BME280;6016;41.928;25.556;2023-12-14T07:21:45;98354.41;;;7.00;79.91
11912;BME280;6016;41.928;25.556;2023-12-14T07:24:12;98342.03;;;7.02;79.09
11912;BME280;6016;41.928;25.556;2023-12-14T07:26:39;98353.06;;;7.06;79.07
11912;BME280;6016;41.928;25.556;2023-12-14T07:29:07;98362.56;;;7.07;78.78
11912;BME280;6016;41.928;25.556;2023-12-14T07:31:34;98365.06;;;7.09;78.72
11912;BME280;6016;41.928;25.556;2023-12-14T07:34:02;98367.28;;;7.13;79.02
11912;BME280;6016;41.928;25.556;2023-12-14T07:36:29;98332.19;;;6.95;79.16
11912;BME280;6016;41.928;25.556;2023-12-14T07:38:56;98368.13;;;7.24;79.16
11912;BME280;6016;41.928;25.556;2023-12-14T07:41:26;98355.84;;;7.24;78.91
11912;BME280;6016;41.928;25.556;2023-12-14T07:43:55;98331.81;;;7.09;79.39
11912;BME280;6016;41.928;25.556;2023-12-14T07:46:22;98356.53;;;7.26;79.98
11912;BME280;6016;41.928;25.556;2023-12-14T07:48:49;98350.88;;;7.31;78.81
11912;BME280;6016;41.928;25.556;2023-12-14T07:51:17;98345.09;;;7.37;78.98
11912;BME280;6016;41.928;25.556;2023-12-14T07:53:44;98343.72;;;7.43;79.18
11912;BME280;6016;41.928;25.556;2023-12-14T07:56:12;98353.06;;;7.45;78.91
11912;BME280;6016;41.928;25.556;2023-12-14T07:58:39;98348.53;;;7.48;79.53
11912;BME280;6016;41.928;25.556;2023-12-14T08:01:06;98342.16;;;7.50;79.67
11912;BME280;6016;41.928;25.556;2023-12-14T08:03:34;98329.06;;;7.40;79.69
11912;BME280;6016;41.928;25.556;2023-12-14T08:06:02;98346.59;;;7.59;79.68
11912;BME280;6016;41.928;25.556;2023-12-14T08:08:30;98349.78;;;7.63;79.47
11912;BME280;6016;41.928;25.556;2023-12-14T08:10:57;98342.03;;;7.71;79.18
11912;BME280;6016;41.928;25.556;2023-12-14T08:13:25;98314.16;;;7.51;78.83
11912;BME280;6016;41.928;25.556;2023-12-14T08:15:52;98327.81;;;7.64;79.32
11912;BME280;6016;41.928;25.556;2023-12-14T08:18:19;98324.47;;;7.72;79.82
11912;BME280;6016;41.928;25.556;2023-12-14T08:20:46;98339.66;;;7.88;79.30
11912;BME280;6016;41.928;25.556;2023-12-14T08:23:13;98315.38;;;7.66;80.11
11912;BME280;6016;41.928;25.556;2023-12-14T08:25:42;98095.50;;;6.35;79.24
11912;BME280;6016;41.928;25.556;2023-12-14T08:28:09;98334.66;;;7.95;79.96
11912;BME280;6016;41.928;25.556;2023-12-14T08:30:36;98274.63;;;7.62;79.28
11912;BME280;6016;41.928;25.556;2023-12-14T08:33:04;98314.34;;;7.97;79.60
11912;BME280;6016;41.928;25.556;2023-12-14T08:35:31;98281.75;;;7.80;79.28
11912;BME280;6016;41.928;25.556;2023-12-14T08:37:58;98333.91;;;8.12;79.21
11912;BME280;6016;41.928;25.556;2023-12-14T08:40:25;98337.91;;;8.16;78.96
11912;BME280;6016;41.928;25.556;2023-12-14T08:42:53;98343.69;;;8.20;78.58
11912;BME280;6016;41.928;25.556;2023-12-14T08:45:20;98342.59;;;8.23;78.38
11912;BME280;6016;41.928;25.556;2023-12-14T08:47:47;98338.31;;;8.22;78.54
11912;BME280;6016;41.928;25.556;2023-12-14T08:50:15;98327.50;;;8.25;79.04
11912;BME280;6016;41.928;25.556;2023-12-14T08:52:42;98337.59;;;8.29;78.50
11912;BME280;6016;41.928;25.556;2023-12-14T08:55:09;98306.09;;;8.20;79.57
11912;BME280;6016;41.928;25.556;2023-12-14T08:57:36;98351.53;;;8.40;78.91
11912;BME280;6016;41.928;25.556;2023-12-14T09:00:05;98363.56;;;8.42;79.31
11912;BME280;6016;41.928;25.556;2023-12-14T09:02:33;98347.34;;;8.47;79.02
11912;BME280;6016;41.928;25.556;2023-12-14T09:05:00;98316.81;;;8.36;79.36
11912;BME280;6016;41.928;25.556;2023-12-14T09:07:27;98332.75;;;8.35;79.47
11912;BME280;6016;41.928;25.556;2023-12-14T09:09:54;98354.97;;;8.50;80.57
11912;BME280;6016;41.928;25.556;2023-12-14T09:12:21;98352.03;;;8.53;80.69
11912;BME280;6016;41.928;25.556;2023-12-14T09:14:48;98348.84;;;8.60;80.23
11912;BME280;6016;41.928;25.556;2023-12-14T09:17:16;98346.28;;;8.68;80.32
11912;BME280;6016;41.928;25.556;2023-12-14T09:19:43;98338.41;;;8.68;80.56
11912;BME280;6016;41.928;25.556;2023-12-14T09:22:11;98299.63;;;8.42;80.44
11912;BME280;6016;41.928;25.556;2023-12-14T09:24:38;98333.09;;;8.78;80.34
11912;BME280;6016;41.928;25.556;2023-12-14T09:27:05;98312.34;;;8.47;80.51
11912;BME280;6016;41.928;25.556;2023-12-14T09:29:32;98335.66;;;8.69;79.89
11912;BME280;6016;41.928;25.556;2023-12-14T09:31:59;98338.41;;;8.68;80.45
11912;BME280;6016;41.928;25.556;2023-12-14T09:34:27;98301.81;;;8.56;80.61
11912;BME280;6016;41.928;25.556;2023-12-14T09:36:54;98344.16;;;8.81;79.95
11912;BME280;6016;41.928;25.556;2023-12-14T09:39:21;98337.69;;;8.76;79.79
11912;BME280;6016;41.928;25.556;2023-12-14T09:41:50;98327.56;;;8.81;79.74
11912;BME280;6016;41.928;25.556;2023-12-14T09:44:17;98328.97;;;8.75;79.45
11912;BME280;6016;41.928;25.556;2023-12-14T09:46:44;98322.00;;;8.84;79.65
11912;BME280;6016;41.928;25.556;2023-12-14T09:49:16;98280.28;;;8.43;78.93
11912;BME280;6016;41.928;25.556;2023-12-14T09:51:45;98303.13;;;8.70;79.03
11912;BME280;6016;41.928;25.556;2023-12-14T09:54:12;98306.28;;;8.74;79.31
11912;BME280;6016;41.928;25.556;2023-12-14T09:56:46;98291.56;;;8.81;78.97
11912;BME280;6016;41.928;25.556;2023-12-14T09:59:13;98280.50;;;8.60;78.39
11912;BME280;6016;41.928;25.556;2023-12-14T10:01:40;98288.97;;;8.53;79.08
11912;BME280;6016;41.928;25.556;2023-12-14T10:04:09;98286.91;;;8.47;79.67
11912;BME280;6016;41.928;25.556;2023-12-14T10:06:36;98285.22;;;8.56;79.48
11912;BME280;6016;41.928;25.556;2023-12-14T10:09:05;98279.22;;;8.64;79.39
11912;BME280;6016;41.928;25.556;2023-12-14T10:11:35;98259.91;;;8.45;79.80
11912;BME280;6016;41.928;25.556;2023-12-14T10:14:02;98280.94;;;8.45;80.45
11912;BME280;6016;41.928;25.556;2023-12-14T10:16:30;98238.09;;;8.44;79.88
11912;BME280;6016;41.928;25.556;2023-12-14T10:18:58;98282.72;;;8.54;79.75
11912;BME280;6016;41.928;25.556;2023-12-14T10:21:26;98279.34;;;8.62;80.00
11912;BME280;6016;41.928;25.556;2023-12-14T10:23:55;98217.28;;;8.33;80.28
11912;BME280;6016;41.928;25.556;2023-12-14T10:26:25;98132.13;;;7.80;79.02
11912;BME280;6016;41.928;25.556;2023-12-14T10:28:52;98263.16;;;8.85;79.61
11912;BME280;6016;41.928;25.556;2023-12-14T10:31:19;98237.63;;;8.77;79.20
11912;BME280;6016;41.928;25.556;2023-12-14T10:33:47;98249.13;;;8.94;79.33
11912;BME280;6016;41.928;25.556;2023-12-14T10:36:15;98247.16;;;8.96;78.78
11912;BME280;6016;41.928;25.556;2023-12-14T10:38:46;98239.94;;;8.98;79.02
11912;BME280;6016;41.928;25.556;2023-12-14T10:41:17;98235.03;;;9.04;79.17
11912;BME280;6016;41.928;25.556;2023-12-14T10:43:47;98238.88;;;9.09;79.43
11912;BME280;6016;41.928;25.556;2023-12-14T10:46:14;98184.19;;;8.77;78.72
11912;BME280;6016;41.928;25.556;2023-12-14T10:48:42;98184.63;;;8.90;78.92
11912;BME280;6016;41.928;25.556;2023-12-14T10:51:11;98217.00;;;9.27;78.41
11912;BME280;6016;41.928;25.556;2023-12-14T10:53:39;98016.50;;;7.81;77.99
11912;BME280;6016;41.928;25.556;2023-12-14T10:56:10;98229.78;;;9.22;78.36
11912;BME280;6016;41.928;25.556;2023-12-14T10:58:50;98220.41;;;9.19;78.38
11912;BME280;6016;41.928;25.556;2023-12-14T11:01:19;98191.16;;;9.04;78.57
11912;BME280;6016;41.928;25.556;2023-12-14T11:03:47;98202.66;;;9.21;78.75
11912;BME280;6016;41.928;25.556;2023-12-14T11:06:28;98201.25;;;9.35;78.37
11912;BME280;6016;41.928;25.556;2023-12-14T11:08:57;98167.41;;;9.14;78.10
11912;BME280;6016;41.928;25.556;2023-12-14T11:11:28;98198.31;;;9.38;78.68
11912;BME280;6016;41.928;25.556;2023-12-14T11:13:56;98201.78;;;9.39;78.77
11912;BME280;6016;41.928;25.556;2023-12-14T11:16:26;98202.03;;;9.27;79.09
11912;BME280;6016;41.928;25.556;2023-12-14T11:19:24;98194.81;;;9.29;79.11
11912;BME280;6016;41.928;25.556;2023-12-14T11:22:09;98195.69;;;9.38;79.10
11912;BME280;6016;41.928;25.556;2023-12-14T11:24:41;98176.69;;;9.26;78.86
11912;BME280;6016;41.928;25.556;2023-12-14T11:27:09;98195.91;;;9.45;79.13
11912;BME280;6016;41.928;25.556;2023-12-14T11:29:38;98187.13;;;9.36;78.89
11912;BME280;6016;41.928;25.556;2023-12-14T11:32:07;98170.41;;;9.19;79.49
11912;BME280;6016;41.928;25.556;2023-12-14T11:34:34;98132.06;;;8.72;79.56
11912;BME280;6016;41.928;25.556;2023-12-14T11:37:02;98181.50;;;9.05;80.51
11912;BME280;6016;41.928;25.556;2023-12-14T11:39:32;98181.84;;;9.10;80.57
11912;BME280;6016;41.928;25.556;2023-12-14T11:42:00;98156.44;;;9.00;80.41
11912;BME280;6016;41.928;25.556;2023-12-14T11:44:27;98083.38;;;8.60;79.48
11912;BME280;6016;41.928;25.556;2023-12-14T11:46:56;98187.94;;;9.10;79.92
11912;BME280;6016;41.928;25.556;2023-12-14T11:49:24;98201.03;;;9.02;80.08
11912;BME280;6016;41.928;25.556;2023-12-14T11:51:52;98174.88;;;8.82;80.59
11912;BME280;6016;41.928;25.556;2023-12-14T11:54:19;98194.91;;;9.01;81.02
11912;BME280;6016;41.928;25.556;2023-12-14T11:56:47;98176.75;;;8.90;81.49
11912;BME280;6016;41.928;25.556;2023-12-14T11:59:15;98142.53;;;8.82;80.67
11912;BME280;6016;41.928;25.556;2023-12-14T12:01:58;98178.25;;;8.93;80.79
11912;BME280;6016;41.928;25.556;2023-12-14T12:04:26;98175.34;;;8.78;81.35
11912;BME280;6016;41.928;25.556;2023-12-14T12:07:00;98141.38;;;8.48;81.50
11912;BME280;6016;41.928;25.556;2023-12-14T12:09:38;98164.16;;;8.57;81.70
11912;BME280;6016;41.928;25.556;2023-12-14T12:12:07;98182.56;;;8.76;82.26
11912;BME280;6016;41.928;25.556;2023-12-14T12:14:35;98135.75;;;8.43;82.37
11912;BME280;6016;41.928;25.556;2023-12-14T12:17:04;97977.91;;;7.45;82.37
11912;BME280;6016;41.928;25.556;2023-12-14T12:19:32;98185.13;;;8.67;81.88
11912;BME280;6016;41.928;25.556;2023-12-14T12:21:59;98169.03;;;8.70;82.87
11912;BME280;6016;41.928;25.556;2023-12-14T12:24:26;98166.88;;;8.66;82.63
11912;BME280;6016;41.928;25.556;2023-12-14T12:26:54;98151.75;;;8.68;82.23
11912;BME280;6016;41.928;25.556;2023-12-14T12:29:21;98165.50;;;8.80;82.31
11912;BME280;6016;41.928;25.556;2023-12-14T12:31:48;98172.69;;;8.78;82.42
11912;BME280;6016;41.928;25.556;2023-12-14T12:34:16;98179.16;;;8.83;82.08
11912;BME280;6016;41.928;25.556;2023-12-14T12:36:43;98190.44;;;8.76;82.56
11912;BME280;6016;41.928;25.556;2023-12-14T12:39:10;98173.41;;;8.62;82.96
11912;BME280;6016;41.928;25.556;2023-12-14T12:41:37;98151.91;;;8.48;82.27
11912;BME280;6016;41.928;25.556;2023-12-14T12:44:05;98190.00;;;8.80;82.57
11912;BME280;6016;41.928;25.556;2023-12-14T12:46:33;98186.25;;;8.83;82.63
11912;BME280;6016;41.928;25.556;2023-12-14T12:49:01;98140.88;;;8.63;82.29
11912;BME280;6016;41.928;25.556;2023-12-14T12:51:30;98198.78;;;8.71;83.53
11912;BME280;6016;41.928;25.556;2023-12-14T12:53:58;98191.81;;;8.80;82.57
11912;BME280;6016;41.928;25.556;2023-12-14T12:56:25;98172.25;;;8.64;83.21
11912;BME280;6016;41.928;25.556;2023-12-14T12:58:52;98198.84;;;8.79;83.00
11912;BME280;6016;41.928;25.556;2023-12-14T13:01:20;98172.44;;;8.63;82.84
11912;BME280;6016;41.928;25.556;2023-12-14T13:03:53;98215.16;;;8.83;83.14
11912;BME280;6016;41.928;25.556;2023-12-14T13:06:23;98211.78;;;8.91;82.56
11912;BME280;6016;41.928;25.556;2023-12-14T13:08:52;98206.38;;;8.92;82.73
11912;BME280;6016;41.928;25.556;2023-12-14T13:11:19;98221.84;;;8.95;82.23
11912;BME280;6016;41.928;25.556;2023-12-14T13:13:46;98199.84;;;8.78;82.31